Time;durP1;ratioP1;P1;durP2;ratioP2;P2;SDS_P1;SDS_P2;PMS_P1;PMS_P2;Temp;Humidity;BMP_temperature;BMP_pressure;BME280_temperature;BME280_humidity;BME280_pressure;Samples;Min_cycle;Max_cycle;Signal;HPM_P1;HPM_P2
2023/11/28 05:08:50;;;;;;;0.32;0.32;;;5.70;99.90;;;;;;4975913;28;20629;-67
2023/11/28 05:11:16;;;;;;;0.40;0.40;;;5.70;99.90;;;;;;4977119;28;20182;-66
2023/11/28 05:13:41;;;;;;;0.30;0.30;;;5.70;99.90;;;;;;4977113;28;20524;-66
2023/11/28 05:16:07;;;;;;;0.30;0.30;;;5.70;99.90;;;;;;4976947;28;20250;-64
2023/11/28 05:18:33;;;;;;;0.40;0.40;;;5.70;99.90;;;;;;4976353;28;20211;-62
2023/11/28 05:20:58;;;;;;;0.30;0.30;;;5.70;99.90;;;;;;4965035;28;20255;-65
2023/11/28 05:23:25;;;;;;;0.43;0.43;;;5.70;99.90;;;;;;4976765;28;20175;-66
2023/11/28 05:25:50;;;;;;;0.32;0.32;;;5.70;99.90;;;;;;4976225;28;20261;-66
2023/11/28 05:28:16;;;;;;;0.40;0.40;;;5.60;99.90;;;;;;4977048;28;20172;-66
2023/11/28 05:30:42;;;;;;;0.37;0.37;;;5.60;99.90;;;;;;4977067;28;20172;-66
2023/11/28 05:33:07;;;;;;;0.40;0.40;;;5.60;99.90;;;;;;4976670;28;20180;-67
2023/11/28 05:35:33;;;;;;;0.30;0.30;;;5.60;99.90;;;;;;4975056;28;20187;-64
2023/11/28 05:37:58;;;;;;;0.30;0.30;;;5.60;99.90;;;;;;4977056;28;20647;-65
2023/11/28 05:40:24;;;;;;;0.40;0.40;;;5.60;99.90;;;;;;4976267;28;20631;-65
2023/11/28 05:42:50;;;;;;;0.30;0.30;;;5.60;99.90;;;;;;4976074;28;20181;-65
2023/11/28 05:45:15;;;;;;;0.40;0.40;;;5.60;99.90;;;;;;4976143;28;20202;-64
2023/11/28 05:47:41;;;;;;;0.30;0.30;;;5.60;99.90;;;;;;4976363;28;20599;-65
2023/11/28 05:50:07;;;;;;;0.30;0.30;;;5.60;99.90;;;;;;4976212;28;20670;-64
2023/11/28 05:52:33;;;;;;;0.20;0.20;;;5.60;99.90;;;;;;4976152;28;20178;-66
2023/11/28 05:54:58;;;;;;;0.30;0.30;;;5.70;99.90;;;;;;4958259;28;20741;-66
2023/11/28 05:57:24;;;;;;;0.30;0.30;;;5.70;99.90;;;;;;4976365;28;20265;-65
2023/11/28 05:59:50;;;;;;;0.30;0.30;;;5.70;99.90;;;;;;4976408;28;20195;-65
2023/11/28 06:02:16;;;;;;;0.30;0.30;;;5.70;99.90;;;;;;4976478;28;20192;-66
2023/11/28 06:04:41;;;;;;;0.30;0.30;;;5.70;99.90;;;;;;4975980;28;20179;-66
2023/11/28 06:07:07;;;;;;;0.40;0.40;;;5.60;99.90;;;;;;4979332;28;20556;-64
2023/11/28 06:09:33;;;;;;;0.30;0.30;;;5.60;99.90;;;;;;4984227;28;20182;-65
2023/11/28 06:11:58;;;;;;;0.40;0.40;;;5.60;99.90;;;;;;4974519;28;20185;-64
2023/11/28 06:14:24;;;;;;;0.30;0.30;;;5.60;99.90;;;;;;4973487;28;20838;-66
2023/11/28 06:16:50;;;;;;;0.30;0.30;;;5.60;99.90;;;;;;4974112;28;20199;-66
2023/11/28 06:19:16;;;;;;;0.30;0.30;;;5.60;99.90;;;;;;4973560;28;20207;-64
2023/11/28 06:21:42;;;;;;;0.40;0.40;;;5.50;99.90;;;;;;4973581;28;20200;-65
2023/11/28 06:24:11;;;;;;;0.30;0.30;;;5.50;99.90;;;;;;4972935;28;20174;-64
2023/11/28 06:26:37;;;;;;;0.35;0.35;;;5.50;99.90;;;;;;4973077;28;20771;-64
2023/11/28 06:29:02;;;;;;;0.30;0.30;;;5.40;99.90;;;;;;4975245;28;20169;-64
2023/11/28 06:31:40;;;;;;;0.30;0.30;;;5.30;99.90;;;;;;4976005;28;20179;-65
2023/11/28 06:34:06;;;;;;;0.43;0.43;;;5.20;99.90;;;;;;4975768;28;20182;-64
2023/11/28 06:36:33;;;;;;;0.30;0.30;;;5.20;99.90;;;;;;4964853;28;20218;-65
2023/11/28 06:38:59;;;;;;;0.30;0.30;;;5.10;99.90;;;;;;4988891;28;20187;-63
2023/11/28 06:41:25;;;;;;;0.30;0.30;;;5.00;99.90;;;;;;4975580;28;20206;-66
2023/11/28 06:43:51;;;;;;;0.30;0.30;;;4.90;99.90;;;;;;4975631;28;20179;-66
2023/11/28 06:46:21;;;;;;;0.38;0.38;;;4.80;99.90;;;;;;4975265;28;20191;-68
2023/11/28 06:48:47;;;;;;;0.35;0.35;;;4.60;99.90;;;;;;4975658;28;20290;-66
2023/11/28 06:51:13;;;;;;;0.30;0.30;;;4.60;99.90;;;;;;4975282;28;20209;-65
2023/11/28 06:53:39;;;;;;;0.40;0.40;;;4.50;99.90;;;;;;4974984;28;20232;-65
2023/11/28 06:56:05;;;;;;;0.40;0.40;;;4.40;99.90;;;;;;4974671;28;20437;-64
2023/11/28 06:58:30;;;;;;;0.50;0.50;;;4.30;99.90;;;;;;4975673;28;20178;-66
2023/11/28 07:00:56;;;;;;;0.50;0.50;;;4.10;99.90;;;;;;4977213;28;20204;-62
2023/11/28 07:03:23;;;;;;;0.40;0.40;;;4.00;99.90;;;;;;4974857;28;20727;-65
2023/11/28 07:05:48;;;;;;;0.30;0.30;;;4.00;99.90;;;;;;4974160;28;20809;-66
2023/11/28 07:08:14;;;;;;;0.30;0.30;;;3.90;99.90;;;;;;4974910;28;20188;-65
2023/11/28 07:10:40;;;;;;;0.63;0.63;;;3.80;99.90;;;;;;4973788;28;20200;-65
2023/11/28 07:13:05;;;;;;;0.30;0.30;;;3.70;99.90;;;;;;4974761;28;20424;-64
2023/11/28 07:15:31;;;;;;;0.40;0.40;;;3.70;99.90;;;;;;4974318;28;20243;-64
2023/11/28 07:18:00;;;;;;;0.30;0.30;;;3.60;99.90;;;;;;4974967;28;20183;-66
2023/11/28 07:20:28;;;;;;;0.32;0.32;;;3.60;99.90;;;;;;4975102;28;20180;-65
2023/11/28 07:22:54;;;;;;;0.40;0.40;;;3.50;99.90;;;;;;4974640;28;20183;-66
2023/11/28 07:25:19;;;;;;;0.40;0.40;;;3.50;99.90;;;;;;4974450;28;20244;-66
2023/11/28 07:27:45;;;;;;;0.50;0.50;;;3.50;99.90;;;;;;4974885;28;20170;-65
2023/11/28 07:30:11;;;;;;;0.40;0.40;;;3.50;99.90;;;;;;4974957;28;20183;-65
2023/11/28 07:32:36;;;;;;;0.40;0.40;;;3.50;99.90;;;;;;4974865;28;20176;-65
2023/11/28 07:35:05;;;;;;;0.40;0.40;;;3.50;99.90;;;;;;4974411;28;20434;-65
2023/11/28 07:37:31;;;;;;;0.30;0.30;;;3.50;99.90;;;;;;4956696;28;20243;-67
2023/11/28 07:39:56;;;;;;;0.30;0.30;;;3.40;99.90;;;;;;4974903;28;20181;-65
2023/11/28 07:42:25;;;;;;;0.40;0.40;;;3.40;99.90;;;;;;4974693;28;20668;-65
2023/11/28 07:44:51;;;;;;;0.40;0.40;;;3.40;99.90;;;;;;4974213;28;20205;-67
2023/11/28 07:47:19;;;;;;;0.40;0.40;;;3.40;99.90;;;;;;4974659;28;20663;-67
2023/11/28 07:49:45;;;;;;;0.30;0.30;;;3.30;99.90;;;;;;4957321;28;20180;-66
2023/11/28 07:52:12;;;;;;;0.40;0.40;;;3.30;99.90;;;;;;4974321;28;20177;-66
2023/11/28 07:54:40;;;;;;;0.30;0.30;;;3.30;99.90;;;;;;4973660;28;20645;-65
2023/11/28 07:57:06;;;;;;;0.30;0.30;;;3.30;99.90;;;;;;4974660;28;20577;-65
2023/11/28 07:59:31;;;;;;;0.43;0.43;;;3.30;99.90;;;;;;4974785;28;20186;-65
2023/11/28 08:01:57;;;;;;;0.40;0.40;;;3.30;99.90;;;;;;4974522;28;20196;-66
2023/11/28 08:04:23;;;;;;;0.40;0.40;;;3.30;99.90;;;;;;4974269;28;20564;-64
2023/11/28 08:06:48;;;;;;;0.30;0.30;;;3.20;99.90;;;;;;4974080;28;20731;-65
2023/11/28 08:09:14;;;;;;;0.30;0.30;;;3.20;99.90;;;;;;4974799;28;20533;-64
2023/11/28 08:11:42;;;;;;;0.40;0.40;;;3.20;99.90;;;;;;4973404;28;20190;-65
2023/11/28 08:14:08;;;;;;;0.30;0.30;;;3.20;99.90;;;;;;4976840;28;20307;-65
2023/11/28 08:16:36;;;;;;;0.40;0.40;;;3.10;99.90;;;;;;4978361;28;20275;-65
2023/11/28 08:19:04;;;;;;;0.30;0.30;;;3.10;99.90;;;;;;4978899;28;20267;-66
2023/11/28 08:21:30;;;;;;;0.40;0.40;;;3.00;99.90;;;;;;4977766;28;20219;-65
2023/11/28 08:23:56;;;;;;;0.30;0.30;;;3.00;99.90;;;;;;4978030;28;20543;-65
2023/11/28 08:26:22;;;;;;;0.38;0.38;;;3.00;99.90;;;;;;4978153;28;20244;-64
2023/11/28 08:28:47;;;;;;;0.30;0.30;;;3.00;99.90;;;;;;4978330;28;20168;-65
2023/11/28 08:31:14;;;;;;;0.40;0.40;;;3.00;99.90;;;;;;4978237;28;20256;-66
2023/11/28 08:33:39;;;;;;;0.35;0.35;;;3.00;99.90;;;;;;4978165;28;20181;-65
2023/11/28 08:36:05;;;;;;;0.30;0.30;;;3.00;99.90;;;;;;4977437;28;20203;-65
2023/11/28 08:38:31;;;;;;;0.30;0.30;;;3.00;99.90;;;;;;4978024;28;20184;-66
2023/11/28 08:40:57;;;;;;;0.40;0.40;;;2.90;99.90;;;;;;4977734;28;20470;-66
2023/11/28 08:43:23;;;;;;;0.30;0.30;;;2.90;99.90;;;;;;4977803;28;20418;-66
2023/11/28 08:45:49;;;;;;;0.30;0.30;;;2.90;99.90;;;;;;4977333;28;20270;-67
2023/11/28 08:48:15;;;;;;;0.40;0.40;;;2.90;99.90;;;;;;4977553;28;20268;-63
2023/11/28 08:50:40;;;;;;;0.30;0.30;;;2.90;99.90;;;;;;4977502;28;20588;-65
2023/11/28 08:53:07;;;;;;;0.43;0.43;;;2.90;99.90;;;;;;4977687;28;20199;-65
2023/11/28 08:55:33;;;;;;;0.40;0.40;;;2.90;99.90;;;;;;4977057;28;20738;-65
2023/11/28 08:57:59;;;;;;;0.40;0.40;;;2.90;99.90;;;;;;4977637;28;20568;-66
2023/11/28 09:00:24;;;;;;;0.57;0.57;;;2.90;99.90;;;;;;4977552;28;20199;-66
2023/11/28 09:02:51;;;;;;;0.40;0.40;;;2.80;99.90;;;;;;4977073;28;20295;-65
2023/11/28 09:05:17;;;;;;;0.50;0.50;;;2.80;99.90;;;;;;4977021;28;20199;-66
2023/11/28 09:07:45;;;;;;;0.40;0.40;;;2.80;99.90;;;;;;4977370;28;20195;-66
2023/11/28 09:10:12;;;;;;;0.40;0.40;;;2.80;99.90;;;;;;4977369;28;20191;-66
2023/11/28 09:12:37;;;;;;;0.40;0.40;;;2.80;99.90;;;;;;4977432;28;20505;-65
2023/11/28 09:15:07;;;;;;;0.30;0.30;;;2.80;99.90;;;;;;4959590;28;20196;-64
2023/11/28 09:17:32;;;;;;;0.40;0.40;;;2.80;99.90;;;;;;4977114;28;20936;-64
2023/11/28 09:19:58;;;;;;;0.30;0.30;;;2.80;99.90;;;;;;4976807;28;20245;-66
2023/11/28 09:22:26;;;;;;;0.30;0.30;;;2.80;99.90;;;;;;4977060;28;20207;-65
2023/11/28 09:24:55;;;;;;;0.40;0.40;;;2.90;99.90;;;;;;4975998;28;20753;-65
2023/11/28 09:27:20;;;;;;;0.30;0.30;;;2.90;99.90;;;;;;4977211;28;20171;-66
2023/11/28 09:29:46;;;;;;;0.30;0.30;;;2.90;99.90;;;;;;4977258;28;20277;-65
2023/11/28 09:32:13;;;;;;;0.35;0.35;;;2.90;99.90;;;;;;4976669;28;20223;-67
2023/11/28 09:34:41;;;;;;;0.40;0.40;;;3.00;99.90;;;;;;4976608;28;20192;-65
2023/11/28 09:37:06;;;;;;;0.40;0.40;;;3.00;99.90;;;;;;4976961;28;20197;-66
2023/11/28 09:39:32;;;;;;;0.80;0.80;;;3.00;99.90;;;;;;4976775;28;20180;-64
2023/11/28 09:42:00;;;;;;;0.30;0.30;;;3.00;99.90;;;;;;4976904;28;20548;-66
2023/11/28 09:44:28;;;;;;;0.40;0.40;;;3.10;99.90;;;;;;4976325;28;20187;-66
2023/11/28 09:46:56;;;;;;;0.35;0.35;;;3.10;99.90;;;;;;4958942;28;20212;-66
2023/11/28 09:49:23;;;;;;;0.30;0.30;;;3.10;99.90;;;;;;4976779;28;20187;-66
2023/11/28 09:51:51;;;;;;;0.38;0.38;;;3.10;99.90;;;;;;4976711;28;20187;-64
2023/11/28 09:54:19;;;;;;;0.47;0.47;;;3.10;99.90;;;;;;4976386;28;20311;-64
2023/11/28 09:56:44;;;;;;;0.30;0.30;;;3.10;99.90;;;;;;4976349;28;20563;-64
2023/11/28 09:59:13;;;;;;;0.43;0.43;;;3.20;99.90;;;;;;4976585;28;20252;-64
2023/11/28 10:01:42;;;;;;;0.40;0.40;;;3.20;99.90;;;;;;4976130;28;20514;-65
2023/11/28 10:04:07;;;;;;;0.30;0.30;;;3.20;99.90;;;;;;4975821;28;20176;-64
2023/11/28 10:06:34;;;;;;;0.50;0.50;;;3.20;99.90;;;;;;4976444;28;20195;-65
2023/11/28 10:09:01;;;;;;;0.40;0.40;;;3.20;99.90;;;;;;4976456;28;20176;-65
2023/11/28 10:11:31;;;;;;;0.40;0.40;;;3.20;99.90;;;;;;4976789;28;20185;-66
2023/11/28 10:13:57;;;;;;;0.30;0.30;;;3.20;99.90;;;;;;4975988;28;20177;-66
2023/11/28 10:16:42;;;;;;;0.30;0.30;;;3.20;99.90;;;;;;4975739;28;20196;-62
2023/11/28 10:19:08;;;;;;;0.30;0.30;;;3.20;99.90;;;;;;4976394;28;20795;-65
2023/11/28 10:21:35;;;;;;;0.40;0.40;;;3.20;99.90;;;;;;4976166;28;20267;-65
2023/11/28 10:24:00;;;;;;;0.40;0.40;;;3.20;99.90;;;;;;4975876;28;20411;-64
2023/11/28 10:26:26;;;;;;;0.30;0.30;;;3.20;99.90;;;;;;4975984;28;20727;-66
2023/11/28 10:28:51;;;;;;;0.40;0.40;;;3.10;99.90;;;;;;4976013;28;20180;-66
2023/11/28 10:31:18;;;;;;;0.40;0.40;;;3.10;99.90;;;;;;4975668;28;20271;-66
2023/11/28 10:33:43;;;;;;;0.40;0.40;;;3.10;99.90;;;;;;4975959;28;20176;-65
2023/11/28 10:36:10;;;;;;;0.30;0.30;;;3.10;99.90;;;;;;4975146;28;20204;-66
2023/11/28 10:38:37;;;;;;;0.30;0.30;;;3.10;99.90;;;;;;4975807;28;20423;-67
2023/11/28 10:41:03;;;;;;;0.30;0.30;;;3.10;99.90;;;;;;4975796;28;20269;-66
2023/11/28 10:43:29;;;;;;;0.30;0.30;;;3.10;99.90;;;;;;4975844;28;20187;-66
2023/11/28 10:45:57;;;;;;;0.30;0.30;;;3.10;99.90;;;;;;4957605;28;20526;-67
2023/11/28 10:48:23;;;;;;;0.30;0.30;;;3.00;99.90;;;;;;4958346;28;20987;-65
2023/11/28 10:50:49;;;;;;;0.30;0.30;;;3.10;99.90;;;;;;4975442;28;20172;-64
2023/11/28 10:53:17;;;;;;;0.30;0.30;;;3.00;99.90;;;;;;4975657;28;20255;-64
2023/11/28 10:55:55;;;;;;;0.30;0.30;;;3.00;99.90;;;;;;4975022;28;20228;-64
2023/11/28 10:58:21;;;;;;;0.30;0.30;;;3.00;99.90;;;;;;4957595;28;20536;-64
2023/11/28 11:00:52;;;;;;;0.30;0.30;;;3.00;99.90;;;;;;4957746;28;20187;-64
2023/11/28 11:03:19;;;;;;;0.30;0.30;;;3.00;99.90;;;;;;4975107;28;20926;-65
2023/11/28 11:05:45;;;;;;;0.40;0.40;;;3.00;99.90;;;;;;4974418;28;20717;-66
2023/11/28 11:08:11;;;;;;;0.30;0.30;;;3.00;99.90;;;;;;4974870;28;20184;-64
2023/11/28 11:10:41;;;;;;;0.30;0.30;;;2.90;99.90;;;;;;4974784;28;20180;-66
2023/11/28 11:13:41;;;;;;;0.40;0.40;;;2.90;99.90;;;;;;4974912;28;20583;-64
2023/11/28 11:16:26;;;;;;;0.30;0.30;;;2.80;99.90;;;;;;4959297;28;20600;-65
2023/11/28 11:18:55;;;;;;;0.40;0.40;;;2.80;99.90;;;;;;4975019;28;20252;-65
2023/11/28 11:21:37;;;;;;;0.32;0.32;;;2.80;99.90;;;;;;4974945;28;20235;-65
2023/11/28 11:24:03;;;;;;;0.45;0.45;;;2.70;99.90;;;;;;4973685;28;20180;-68
2023/11/28 11:26:39;;;;;;;0.40;0.40;;;2.70;99.90;;;;;;4955976;28;20593;-66
2023/11/28 11:29:23;;;;;;;0.38;0.38;;;2.60;99.90;;;;;;4922011;29;20521;-64
2023/11/28 11:31:56;;;;;;;0.40;0.40;;;2.60;99.90;;;;;;4955444;29;20196;-66
2023/11/28 11:34:35;;;;;;;0.45;0.45;;;2.60;99.90;;;;;;4971711;28;20263;-64
2023/11/28 11:37:08;;;;;;;0.38;0.38;;;2.60;99.90;;;;;;4973628;28;20203;-65
2023/11/28 11:39:36;;;;;;;0.30;0.30;;;2.50;99.90;;;;;;4974662;28;20165;-65
2023/11/28 11:42:02;;;;;;;0.30;0.30;;;2.50;99.90;;;;;;4974376;28;20568;-66
2023/11/28 11:44:28;;;;;;;0.50;0.50;;;2.50;99.90;;;;;;4957097;28;20179;-66
2023/11/28 11:46:54;;;;;;;0.40;0.40;;;2.50;99.90;;;;;;4974612;28;20737;-62
2023/11/28 11:49:20;;;;;;;0.30;0.30;;;2.50;99.90;;;;;;4973893;28;20175;-65
2023/11/28 11:51:46;;;;;;;0.40;0.40;;;2.50;99.90;;;;;;4974691;28;20537;-65
2023/11/28 11:54:12;;;;;;;0.40;0.40;;;2.50;99.90;;;;;;4973902;28;20184;-65
2023/11/28 11:56:37;;;;;;;0.30;0.30;;;2.50;99.90;;;;;;4974596;28;20193;-67
2023/11/28 11:59:03;;;;;;;0.40;0.40;;;2.50;99.90;;;;;;4974491;28;20319;-66
2023/11/28 12:01:32;;;;;;;0.30;0.30;;;2.60;99.90;;;;;;4974535;28;20301;-66
2023/11/28 12:04:02;;;;;;;0.35;0.35;;;2.50;99.90;;;;;;4974273;28;20446;-66
2023/11/28 12:06:28;;;;;;;0.30;0.30;;;2.60;99.90;;;;;;4974453;28;20203;-66
2023/11/28 12:08:59;;;;;;;0.30;0.30;;;2.60;99.90;;;;;;4974572;28;20532;-66
2023/11/28 12:11:25;;;;;;;0.40;0.40;;;2.70;99.90;;;;;;4974294;28;20176;-65
2023/11/28 12:13:52;;;;;;;0.40;0.40;;;2.70;99.90;;;;;;4974486;28;20315;-65
2023/11/28 12:16:18;;;;;;;0.30;0.30;;;2.70;99.90;;;;;;4973780;28;20196;-65
2023/11/28 12:18:43;;;;;;;0.40;0.40;;;2.70;99.90;;;;;;4974433;28;20193;-64
2023/11/28 12:21:09;;;;;;;0.50;0.50;;;2.70;99.90;;;;;;4974352;28;20467;-65
2023/11/28 12:23:34;;;;;;;0.43;0.43;;;2.70;99.90;;;;;;4974086;28;20663;-63
2023/11/28 12:26:00;;;;;;;0.30;0.30;;;2.70;99.90;;;;;;4973806;28;20557;-64
2023/11/28 12:28:29;;;;;;;0.40;0.40;;;2.70;99.90;;;;;;4974379;28;20184;-66
2023/11/28 12:30:56;;;;;;;0.40;0.40;;;2.70;99.90;;;;;;4974300;28;20420;-66
2023/11/28 12:33:23;;;;;;;0.40;0.40;;;2.70;99.90;;;;;;4974370;28;20169;-66
2023/11/28 12:35:49;;;;;;;0.40;0.40;;;2.70;99.90;;;;;;4973675;28;20710;-65
2023/11/28 12:38:16;;;;;;;0.30;0.30;;;2.60;99.90;;;;;;4974336;28;20176;-66
2023/11/28 12:40:44;;;;;;;0.30;0.30;;;2.60;99.90;;;;;;4973761;28;20882;-65
2023/11/28 12:43:19;;;;;;;0.40;0.40;;;2.60;99.90;;;;;;4974171;28;20169;-64
2023/11/28 12:45:45;;;;;;;0.30;0.30;;;2.60;99.90;;;;;;4973684;28;20199;-66
2023/11/28 12:48:11;;;;;;;0.30;0.30;;;2.50;99.90;;;;;;4974212;28;20187;-65
2023/11/28 12:50:36;;;;;;;0.30;0.30;;;2.50;99.90;;;;;;4974135;28;20928;-65
2023/11/28 12:53:18;;;;;;;0.30;0.30;;;2.50;99.90;;;;;;4973908;28;20207;-64
2023/11/28 12:55:45;;;;;;;0.40;0.40;;;2.50;99.90;;;;;;4954253;28;20192;-63
2023/11/28 12:58:11;;;;;;;0.40;0.40;;;2.50;99.90;;;;;;4954651;29;20184;-65
2023/11/28 13:00:36;;;;;;;0.40;0.40;;;2.50;99.90;;;;;;4956539;28;20168;-65
2023/11/28 13:03:02;;;;;;;0.37;0.37;;;2.50;99.90;;;;;;4958153;29;20295;-65
2023/11/28 13:05:29;;;;;;;0.40;0.40;;;2.40;99.90;;;;;;4957582;28;20204;-65
2023/11/28 13:07:55;;;;;;;0.30;0.30;;;2.40;99.90;;;;;;4958989;28;20192;-65
2023/11/28 13:10:20;;;;;;;0.30;0.30;;;2.40;99.90;;;;;;4977490;28;20223;-66
2023/11/28 13:12:46;;;;;;;0.40;0.40;;;2.40;99.90;;;;;;4977443;28;20256;-65
2023/11/28 13:15:15;;;;;;;0.40;0.40;;;2.50;99.90;;;;;;4976944;28;20199;-65
2023/11/28 13:17:41;;;;;;;0.40;0.40;;;2.50;99.90;;;;;;4959507;28;20184;-65
2023/11/28 13:20:07;;;;;;;0.40;0.40;;;2.50;99.90;;;;;;4977163;28;20534;-65
2023/11/28 13:22:33;;;;;;;0.30;0.30;;;2.50;99.90;;;;;;4977007;28;20815;-65
2023/11/28 13:24:58;;;;;;;0.40;0.40;;;2.40;99.90;;;;;;4976046;28;20200;-64
2023/11/28 13:27:24;;;;;;;0.40;0.40;;;2.40;99.90;;;;;;4977209;28;20632;-64
2023/11/28 13:29:49;;;;;;;0.40;0.40;;;2.40;99.90;;;;;;4977181;28;20209;-64
2023/11/28 13:32:15;;;;;;;0.30;0.30;;;2.40;99.90;;;;;;4976945;28;20238;-65
2023/11/28 13:34:43;;;;;;;0.30;0.30;;;2.40;99.90;;;;;;4976637;28;20243;-64
2023/11/28 13:37:09;;;;;;;0.40;0.40;;;2.40;99.90;;;;;;4976957;28;20187;-64
2023/11/28 13:39:34;;;;;;;0.40;0.40;;;2.40;99.90;;;;;;4976626;28;20223;-65
2023/11/28 13:42:00;;;;;;;0.40;0.40;;;2.40;99.90;;;;;;4976735;28;20462;-65
2023/11/28 13:44:29;;;;;;;0.40;0.40;;;2.40;99.90;;;;;;4976771;28;20172;-65
2023/11/28 13:46:55;;;;;;;0.40;0.40;;;2.30;99.90;;;;;;4976607;28;20191;-65
2023/11/28 13:49:21;;;;;;;0.40;0.40;;;2.30;99.90;;;;;;4959458;28;20172;-64
2023/11/28 13:51:47;;;;;;;0.30;0.30;;;2.30;99.90;;;;;;4976431;28;20478;-64
2023/11/28 13:54:13;;;;;;;0.30;0.30;;;2.30;99.90;;;;;;4975739;28;20881;-68
2023/11/28 13:56:39;;;;;;;0.30;0.30;;;2.30;99.90;;;;;;4976615;28;20209;-66
2023/11/28 13:59:04;;;;;;;0.30;0.30;;;2.30;99.90;;;;;;4976729;28;20415;-64
2023/11/28 14:01:30;;;;;;;0.40;0.40;;;2.30;99.90;;;;;;4976321;28;20199;-64
2023/11/28 14:03:58;;;;;;;0.40;0.40;;;2.30;99.90;;;;;;4975867;28;20172;-63
2023/11/28 14:06:23;;;;;;;0.40;0.40;;;2.30;99.90;;;;;;4976157;28;20196;-63
2023/11/28 14:08:49;;;;;;;0.30;0.30;;;2.30;99.90;;;;;;4976051;28;20241;-62
2023/11/28 14:11:14;;;;;;;0.40;0.40;;;2.40;99.90;;;;;;4975789;28;20239;-64
2023/11/28 14:13:40;;;;;;;0.30;0.30;;;2.30;99.90;;;;;;4976256;28;20177;-64
2023/11/28 14:16:07;;;;;;;0.30;0.30;;;2.30;99.90;;;;;;4975866;28;20199;-61
2023/11/28 14:18:33;;;;;;;0.40;0.40;;;2.30;99.90;;;;;;4975959;28;20251;-60
2023/11/28 14:21:00;;;;;;;0.30;0.30;;;2.30;99.90;;;;;;4975963;28;20263;-63
2023/11/28 14:23:26;;;;;;;0.50;0.50;;;2.30;99.90;;;;;;4975595;28;20231;-62
2023/11/28 14:25:52;;;;;;;0.30;0.30;;;2.30;99.90;;;;;;4975553;28;20555;-63
2023/11/28 14:28:18;;;;;;;0.30;0.30;;;2.30;99.90;;;;;;4975969;28;20407;-64
2023/11/28 14:30:43;;;;;;;0.30;0.30;;;2.30;99.90;;;;;;4976063;28;20227;-64
2023/11/28 14:33:10;;;;;;;0.30;0.30;;;2.30;99.90;;;;;;4976096;28;20176;-62
2023/11/28 14:35:36;;;;;;;0.40;0.40;;;2.30;99.90;;;;;;4975256;28;20279;-64
2023/11/28 14:38:04;;;;;;;0.30;0.30;;;2.30;99.90;;;;;;4957900;28;20323;-63
2023/11/28 14:40:30;;;;;;;0.32;0.32;;;2.30;99.90;;;;;;4975728;28;20180;-63
2023/11/28 14:42:56;;;;;;;0.40;0.40;;;2.30;99.90;;;;;;4958233;28;20204;-64
2023/11/28 14:45:21;;;;;;;0.40;0.40;;;2.30;99.90;;;;;;4975285;28;20192;-62
2023/11/28 14:47:49;;;;;;;0.30;0.30;;;2.40;99.90;;;;;;4975490;28;20179;-62
2023/11/28 14:50:14;;;;;;;1.35;1.25;;;2.40;99.90;;;;;;4975386;28;20200;-63
2023/11/28 14:52:40;;;;;;;0.40;0.40;;;2.40;99.90;;;;;;4975260;28;20337;-64
2023/11/28 14:55:06;;;;;;;0.30;0.30;;;2.30;99.90;;;;;;4974849;28;20251;-63
2023/11/28 14:57:32;;;;;;;0.30;0.30;;;2.30;99.90;;;;;;4975480;28;20184;-62
2023/11/28 14:59:57;;;;;;;0.40;0.40;;;2.40;99.90;;;;;;4975587;28;20184;-64
2023/11/28 15:02:23;;;;;;;0.40;0.40;;;2.40;99.90;;;;;;4975320;28;20196;-63
2023/11/28 15:04:49;;;;;;;0.30;0.30;;;2.40;99.90;;;;;;4974746;28;20645;-62
2023/11/28 15:07:15;;;;;;;0.30;0.30;;;2.30;99.90;;;;;;4974989;28;20807;-63
2023/11/28 15:09:41;;;;;;;0.30;0.30;;;2.30;99.90;;;;;;4974880;28;20227;-63
2023/11/28 15:12:06;;;;;;;0.30;0.30;;;2.30;99.90;;;;;;4974962;28;20171;-63
2023/11/28 15:14:32;;;;;;;0.40;0.40;;;2.30;99.90;;;;;;4974644;28;20175;-69
2023/11/28 15:16:59;;;;;;;0.40;0.40;;;2.30;99.90;;;;;;4957528;28;20668;-61
2023/11/28 15:19:25;;;;;;;0.32;0.32;;;2.30;99.90;;;;;;4974692;28;20427;-64
2023/11/28 15:21:51;;;;;;;0.40;0.40;;;2.30;99.90;;;;;;4974652;28;20339;-66
2023/11/28 15:24:17;;;;;;;0.40;0.40;;;2.40;99.90;;;;;;4973530;28;20191;-68
2023/11/28 15:26:42;;;;;;;0.30;0.30;;;2.30;99.90;;;;;;4974645;28;20192;-64
2023/11/28 15:29:08;;;;;;;0.33;0.33;;;2.30;99.90;;;;;;4974609;28;20183;-64
2023/11/28 15:31:33;;;;;;;0.40;0.40;;;2.40;99.90;;;;;;4974626;28;20176;-62
2023/11/28 15:34:03;;;;;;;0.30;0.30;;;2.40;99.90;;;;;;4974238;28;20179;-63
2023/11/28 15:36:29;;;;;;;0.30;0.30;;;2.40;99.90;;;;;;4974476;28;20195;-63
2023/11/28 15:38:54;;;;;;;0.30;0.30;;;2.40;99.90;;;;;;4974197;28;20525;-62
2023/11/28 15:41:21;;;;;;;0.30;0.30;;;2.40;99.90;;;;;;4974487;28;20818;-62
2023/11/28 15:43:47;;;;;;;0.38;0.38;;;2.30;99.90;;;;;;4974252;28;20186;-62
2023/11/28 15:46:12;;;;;;;0.30;0.30;;;2.30;99.90;;;;;;4974002;28;20274;-65
2023/11/28 15:48:38;;;;;;;0.30;0.30;;;2.20;99.90;;;;;;4974281;28;20227;-62
2023/11/28 15:51:04;;;;;;;0.30;0.30;;;2.20;99.90;;;;;;4974254;28;20172;-61
2023/11/28 15:53:29;;;;;;;0.40;0.40;;;2.20;99.90;;;;;;4974351;28;20268;-61
2023/11/28 15:55:55;;;;;;;0.33;0.33;;;2.10;99.90;;;;;;4973938;28;20225;-62
2023/11/28 15:58:21;;;;;;;0.30;0.30;;;2.10;99.90;;;;;;4974452;28;20271;-62
2023/11/28 16:00:47;;;;;;;0.40;0.40;;;2.10;99.90;;;;;;4956618;28;20275;-70
2023/11/28 16:03:13;;;;;;;0.40;0.40;;;2.20;99.90;;;;;;4974135;28;20211;-62
2023/11/28 16:05:40;;;;;;;0.30;0.30;;;2.10;99.90;;;;;;4973955;28;20560;-63
2023/11/28 16:08:06;;;;;;;0.40;0.40;;;2.10;99.90;;;;;;4974198;28;20791;-63
2023/11/28 16:10:35;;;;;;;0.32;0.32;;;2.10;99.90;;;;;;4956996;28;20179;-68
2023/11/28 16:13:00;;;;;;;0.50;0.50;;;2.10;99.90;;;;;;4956651;28;20176;-68
2023/11/28 16:15:26;;;;;;;0.40;0.40;;;2.10;99.90;;;;;;4955901;28;20227;-64
2023/11/28 16:17:52;;;;;;;0.30;0.30;;;2.10;99.90;;;;;;4956366;28;20318;-63
2023/11/28 16:20:18;;;;;;;0.40;0.40;;;2.20;99.90;;;;;;4974243;28;20180;-63
2023/11/28 16:22:44;;;;;;;0.30;0.30;;;2.20;99.90;;;;;;4974174;28;20471;-63
2023/11/28 16:25:10;;;;;;;0.33;0.33;;;2.20;99.90;;;;;;4973612;28;20656;-61
2023/11/28 16:27:35;;;;;;;0.30;0.30;;;2.10;99.90;;;;;;4973933;28;20172;-62
2023/11/28 16:30:02;;;;;;;0.30;0.30;;;2.10;99.90;;;;;;4973860;28;20250;-62
2023/11/28 16:32:28;;;;;;;0.30;0.30;;;2.20;99.90;;;;;;4974162;28;20204;-62
2023/11/28 16:34:53;;;;;;;0.40;0.40;;;2.10;99.90;;;;;;4975914;28;20184;-62
2023/11/28 16:37:19;;;;;;;0.30;0.30;;;2.10;99.90;;;;;;4977681;28;20179;-62
2023/11/28 16:39:46;;;;;;;0.50;0.50;;;2.20;99.90;;;;;;4977711;28;20628;-62
2023/11/28 16:42:13;;;;;;;0.40;0.40;;;2.10;99.90;;;;;;4977565;28;20239;-62
2023/11/28 16:44:40;;;;;;;0.40;0.40;;;2.20;99.90;;;;;;4977290;28;20179;-62
2023/11/28 16:47:06;;;;;;;0.40;0.40;;;2.20;99.90;;;;;;4977727;28;20239;-62
2023/11/28 16:49:32;;;;;;;0.40;0.40;;;2.20;99.90;;;;;;4977893;28;20259;-63
2023/11/28 16:51:58;;;;;;;0.30;0.30;;;2.20;99.90;;;;;;4977802;28;20591;-62
2023/11/28 16:54:28;;;;;;;0.50;0.50;;;2.20;99.90;;;;;;4977339;28;20655;-62
2023/11/28 16:56:55;;;;;;;0.40;0.40;;;2.10;99.90;;;;;;4977473;28;20286;-63
2023/11/28 16:59:22;;;;;;;0.30;0.30;;;2.10;99.90;;;;;;4977353;28;20219;-63
2023/11/28 17:01:48;;;;;;;0.60;0.60;;;2.10;99.90;;;;;;4984617;28;20242;-62
2023/11/28 17:04:14;;;;;;;0.30;0.30;;;2.10;99.90;;;;;;4963771;28;20303;-62
2023/11/28 17:06:40;;;;;;;0.30;0.30;;;2.10;99.90;;;;;;4977071;28;20746;-62
2023/11/28 17:09:05;;;;;;;0.40;0.40;;;2.10;99.90;;;;;;4977301;28;20408;-64
2023/11/28 17:11:32;;;;;;;0.50;0.50;;;2.10;99.90;;;;;;4977399;28;20187;-63
2023/11/28 17:13:57;;;;;;;0.35;0.35;;;2.10;99.90;;;;;;4976678;28;20262;-62
2023/11/28 17:16:24;;;;;;;0.60;0.60;;;2.10;99.90;;;;;;4977010;28;20279;-63
2023/11/28 17:18:50;;;;;;;0.40;0.40;;;2.10;99.90;;;;;;4976891;28;20180;-62
2023/11/28 17:21:19;;;;;;;0.30;0.30;;;2.00;99.90;;;;;;4978240;28;20215;-63
2023/11/28 17:23:46;;;;;;;0.77;0.77;;;2.00;99.90;;;;;;4977863;28;20168;-61
2023/11/28 17:26:16;;;;;;;0.30;0.30;;;2.00;99.90;;;;;;4958838;28;20207;-62
2023/11/28 17:28:42;;;;;;;0.30;0.30;;;2.00;99.90;;;;;;4976136;28;20207;-62
2023/11/28 17:31:09;;;;;;;0.40;0.40;;;1.90;99.90;;;;;;4979820;28;20588;-62
2023/11/28 17:33:35;;;;;;;0.40;0.40;;;1.90;99.90;;;;;;4976875;28;20219;-63
2023/11/28 17:36:01;;;;;;;0.45;0.45;;;1.80;99.90;;;;;;4976492;28;20200;-61
2023/11/28 17:38:27;;;;;;;0.40;0.40;;;1.70;99.90;;;;;;4976697;28;20172;-60
2023/11/28 17:40:53;;;;;;;0.40;0.40;;;1.70;99.90;;;;;;4975995;28;20240;-61
2023/11/28 17:43:19;;;;;;;0.40;0.40;;;1.80;99.90;;;;;;4976462;28;20467;-60
2023/11/28 17:45:45;;;;;;;0.32;0.32;;;1.70;99.90;;;;;;4974409;28;20199;-61
2023/11/28 17:48:11;;;;;;;0.80;0.80;;;1.70;99.90;;;;;;4976458;28;20620;-61
2023/11/28 17:50:38;;;;;;;0.50;0.50;;;1.60;99.90;;;;;;4976350;28;20563;-62
2023/11/28 17:53:04;;;;;;;0.30;0.30;;;1.60;99.90;;;;;;4976493;28;20188;-61
2023/11/28 17:55:31;;;;;;;0.30;0.30;;;1.60;99.90;;;;;;4976157;28;20224;-62
2023/11/28 17:57:58;;;;;;;0.40;0.40;;;1.50;99.90;;;;;;4976371;28;20184;-64
2023/11/28 18:00:23;;;;;;;0.30;0.30;;;1.50;99.90;;;;;;4978708;28;20214;-65
2023/11/28 18:02:51;;;;;;;0.30;0.30;;;1.50;99.90;;;;;;4978072;28;20207;-62